LFMT/MPL METAR and TAF weather

Enter ICAO airport designator
Station Type Date Time Source
LFMT METAR 2022/12/04 13:00 UTC NOAA

LFMT 041300Z AUTO 25008KT 9999 FEW024 BKN030 OVC092 12/07 Q1009 BECMG 02010KT


Station Type Date Time Source
LFMT Decoded METAR 2022/12/04 13:00 UTC NOAA

Montpellier, France (LFMT) 43-35N 003-58E 6M
Dec 04, 2022 - 08:00 AM EST / 2022.12.04 1300 UTC
Wind: from the WSW (250 degrees) at 9 MPH (8 KT):0
Visibility: greater than 7 mile(s):0
Sky conditions: overcast
Temperature: 53 F (12 C)
Dew Point: 44 F (7 C)
Relative Humidity: 71%
Pressure (altimeter): 29.80 in. Hg (1009 hPa)
ob: LFMT 041300Z AUTO 25008KT 9999 FEW024 BKN030 OVC092 12/07 Q1009 BECMG 02010KT
cycle: 13

Station Type Date Time Source
LFMT TAF 2022/12/04 09:50 UTC NOAA

TAF LFMT 040800Z 0409/0509 02010KT 9999 SCT025 BKN035
TEMPO 0409/0412 4000 SHRA BKN010 SCT030TCU PROB40
TEMPO 0411/0412 TSRA SCT040CB

Example: see airport list